createdAt,value
2017-09-21T15:22:37.906Z,5.80
2017-09-21T15:25:07.343Z,5.03
2017-09-21T15:27:48.439Z,4.83
2017-09-21T15:30:18.208Z,6.87
2017-09-21T15:32:47.844Z,5.40
2017-09-21T15:35:17.544Z,8.37
2017-09-21T15:37:46.585Z,6.00
2017-09-21T15:40:24.430Z,4.83
2017-09-21T15:42:54.732Z,7.60
2017-09-21T15:45:24.565Z,7.57
2017-09-21T15:47:53.848Z,6.60
2017-09-21T15:54:12.950Z,4.73
2017-09-21T15:57:01.092Z,5.10
2017-09-21T15:59:28.704Z,3.50
2017-09-21T16:01:56.192Z,4.30
2017-09-21T16:04:23.668Z,4.77
2017-09-21T16:06:51.521Z,5.27
2017-09-21T16:09:18.995Z,4.57
2017-09-21T16:11:46.673Z,5.33
2017-09-21T16:14:14.176Z,6.60
2017-09-21T16:16:41.782Z,5.27
2017-09-21T16:19:09.285Z,5.83
2017-09-21T16:21:36.773Z,5.43
2017-09-21T16:24:04.291Z,4.90
2017-09-21T16:26:32.544Z,6.93
2017-09-21T16:29:00.041Z,4.83
2017-09-21T16:31:27.687Z,4.63
2017-09-21T16:33:55.171Z,8.13
2017-09-21T16:36:22.744Z,4.80
2017-09-21T16:38:50.333Z,8.97
2017-09-21T16:41:18.005Z,4.90
2017-09-21T16:43:45.454Z,6.00
2017-09-21T16:46:12.947Z,6.97
2017-09-21T16:48:40.437Z,5.00
2017-09-21T16:51:07.898Z,7.17
2017-09-21T16:53:35.386Z,9.87
2017-09-21T16:56:02.928Z,7.83
2017-09-21T16:58:30.435Z,11.03
2017-09-21T17:00:57.893Z,5.27
2017-09-21T17:03:26.745Z,7.93
2017-09-21T17:05:54.296Z,15.10
2017-09-21T17:08:21.768Z,8.50
2017-09-21T17:10:49.252Z,8.77
2017-09-21T17:13:16.828Z,5.77
2017-09-21T17:15:44.346Z,5.47
2017-09-21T17:18:11.821Z,10.40
2017-09-21T17:20:40.336Z,18.30
2017-09-21T17:23:07.905Z,13.40
2017-09-21T17:25:36.774Z,7.17
2017-09-21T17:28:04.289Z,9.30
2017-09-21T17:30:31.846Z,12.10
2017-09-21T17:33:01.504Z,9.53
2017-09-21T17:35:30.617Z,9.07
2017-09-21T17:37:58.142Z,26.20
2017-09-21T17:40:25.644Z,75.40
2017-09-21T17:42:53.149Z,24.23
2017-09-21T17:45:21.128Z,28.80
2017-09-21T17:47:52.878Z,11.10
2017-09-21T17:50:20.403Z,19.03
2017-09-21T17:52:47.892Z,22.73
2017-09-21T17:55:15.588Z,18.67
2017-09-21T17:57:43.439Z,14.27
2017-09-21T18:00:10.977Z,13.70
2017-09-21T18:02:38.544Z,10.33
2017-09-21T18:05:06.083Z,11.80
2017-09-21T18:07:33.572Z,13.43
2017-09-21T18:10:01.093Z,11.93
2017-09-21T18:12:28.618Z,14.07
2017-09-21T18:14:56.314Z,17.50
2017-09-21T18:17:23.842Z,12.70
2017-09-21T18:19:51.337Z,13.10
2017-09-21T18:22:18.927Z,16.07
2017-09-21T18:24:46.434Z,14.77
2017-09-21T18:27:14.222Z,9.03
2017-09-21T18:29:41.740Z,9.47
2017-09-21T18:32:09.331Z,12.53
2017-09-21T18:34:37.044Z,10.67
2017-09-21T18:37:04.511Z,13.60
2017-09-21T18:39:32.081Z,12.20
2017-09-21T18:41:59.565Z,15.97
2017-09-21T18:44:27.051Z,11.53
2017-09-21T18:46:54.553Z,12.10
2017-09-21T18:49:22.024Z,11.97
2017-09-21T18:51:49.530Z,9.70
2017-09-21T18:54:17.026Z,13.90
2017-09-21T18:56:44.549Z,11.77
2017-09-21T18:59:12.044Z,11.30
2017-09-21T19:01:39.554Z,13.10
2017-09-21T19:04:07.105Z,13.93
2017-09-21T19:06:34.576Z,13.53
2017-09-21T19:09:02.118Z,16.73
2017-09-21T19:11:29.599Z,15.20
2017-09-21T19:13:57.148Z,16.57
2017-09-21T19:16:24.623Z,19.80
2017-09-21T19:18:52.154Z,24.93
2017-09-21T19:21:19.656Z,23.93
2017-09-21T19:23:47.129Z,24.30
2017-09-21T19:26:14.662Z,28.43
2017-09-21T19:28:42.167Z,18.43
2017-09-21T19:31:09.648Z,16.13
2017-09-21T19:33:37.180Z,20.70
2017-09-21T19:36:04.744Z,15.90
2017-09-21T19:38:32.318Z,13.00
2017-09-21T19:40:59.874Z,14.77
2017-09-21T19:43:27.449Z,12.07
2017-09-21T19:45:55.279Z,14.50
2017-09-21T19:48:22.793Z,11.37
2017-09-21T19:50:50.297Z,11.43
2017-09-21T19:53:17.858Z,15.90
2017-09-21T19:55:45.506Z,12.47
2017-09-21T19:58:13.191Z,12.40
2017-09-21T20:00:40.717Z,12.13
2017-09-21T20:03:08.278Z,11.23
2017-09-21T20:05:35.966Z,14.37
2017-09-21T20:08:03.517Z,14.37
2017-09-21T20:10:31.019Z,15.07
2017-09-21T20:12:58.560Z,12.60
2017-09-21T20:15:26.214Z,17.03
2017-09-21T20:17:53.690Z,14.20
2017-09-21T20:20:21.377Z,14.03
2017-09-21T20:22:48.885Z,11.80
2017-09-21T20:25:16.558Z,14.87
2017-09-21T20:27:44.308Z,12.97
2017-09-21T20:30:15.382Z,13.90
2017-09-21T20:32:43.551Z,12.93
2017-09-21T20:35:11.139Z,15.27
2017-09-21T20:37:41.535Z,13.70
2017-09-21T20:40:11.787Z,14.90
2017-09-21T20:42:39.282Z,10.90
2017-09-21T20:45:06.913Z,13.30
2017-09-21T20:50:09.687Z,13.70
2017-09-21T20:52:37.183Z,15.00
2017-09-21T20:55:04.684Z,15.03
2017-09-21T20:57:32.155Z,16.43
2017-09-21T20:59:59.657Z,15.00
2017-09-21T21:02:27.183Z,14.73
2017-09-21T21:04:55.746Z,16.17
2017-09-21T21:07:23.673Z,17.53
2017-09-21T21:09:51.160Z,17.90
2017-09-21T21:12:18.666Z,13.83
2017-09-21T21:14:46.176Z,13.73
2017-09-21T21:17:13.715Z,16.07
2017-09-21T21:19:41.233Z,17.60
2017-09-21T21:22:08.776Z,17.13
2017-09-21T21:24:36.287Z,15.03
2017-09-21T21:27:03.806Z,16.50
2017-09-21T21:29:31.323Z,15.30
2017-09-21T21:31:58.848Z,16.00
2017-09-21T21:34:26.345Z,25.03
2017-09-21T21:36:53.887Z,18.70
2017-09-21T21:39:21.387Z,17.80
2017-09-21T21:41:48.906Z,15.60
2017-09-21T21:44:16.469Z,14.60
2017-09-21T21:46:44.003Z,16.77
2017-09-21T21:49:11.548Z,17.60
2017-09-21T21:51:40.069Z,14.33
2017-09-21T21:54:07.568Z,19.77
2017-09-21T21:56:35.451Z,21.23
2017-09-21T21:59:02.928Z,16.80
2017-09-21T22:01:30.578Z,15.87
2017-09-21T22:03:58.081Z,17.90
2017-09-21T22:06:26.217Z,17.13
2017-09-21T22:08:53.848Z,15.73
2017-09-21T22:11:21.370Z,15.13
2017-09-21T22:13:48.960Z,20.10
2017-09-21T22:16:16.478Z,16.93
2017-09-21T22:18:44.614Z,18.80
2017-09-21T22:21:12.310Z,17.87
2017-09-21T22:23:39.790Z,16.07
2017-09-21T22:26:07.332Z,16.53
2017-09-21T22:28:34.843Z,22.90
2017-09-21T22:31:02.341Z,17.67
2017-09-21T22:33:29.869Z,23.80
2017-09-21T22:35:57.418Z,16.77
2017-09-21T22:38:25.090Z,17.77
2017-09-21T22:40:52.610Z,16.23
2017-09-21T22:43:20.143Z,18.27
2017-09-21T22:45:47.625Z,16.10
2017-09-21T22:48:15.136Z,19.10
2017-09-21T22:50:42.840Z,17.60
2017-09-21T22:53:10.512Z,19.10
2017-09-21T22:55:38.117Z,17.97
2017-09-21T22:58:05.968Z,15.67
2017-09-21T23:00:33.518Z,18.87
2017-09-21T23:03:01.036Z,16.20
2017-09-21T23:05:28.564Z,16.87
2017-09-21T23:07:56.089Z,16.53
2017-09-21T23:10:23.574Z,19.10
2017-09-21T23:12:51.057Z,18.23
2017-09-21T23:15:18.561Z,16.60
2017-09-21T23:17:46.094Z,19.70
2017-09-21T23:20:13.605Z,18.00
2017-09-21T23:22:41.113Z,16.30
2017-09-21T23:25:08.611Z,19.10
2017-09-21T23:30:44.335Z,16.23
2017-09-21T23:33:11.918Z,19.53
2017-09-21T23:35:39.420Z,16.00
2017-09-21T23:38:06.913Z,17.00
2017-09-21T23:40:34.600Z,16.87
2017-09-21T23:43:02.125Z,16.70
2017-09-21T23:45:29.663Z,17.23
2017-09-21T23:48:00.856Z,15.33
2017-09-21T23:50:30.971Z,16.03
2017-09-21T23:52:58.547Z,16.30
2017-09-21T23:55:26.032Z,17.60
2017-09-21T23:57:53.508Z,20.60
